Terminal Aerodrome Forecast
Issued by NWS Memphis, TN

Home | Current Version | Previous Version | Text Only | Print | Product List | Glossary On
Versions: 1 2 3 4 5 6 7 8 9 10 11 12 13 14 15 16 17 18 19 20 21 22 23 24 25 26 27
000
FTUS44 KMEG 051223 AAA
TAFMEM
TAF AMD
KMEM 051223Z 0512/0612 18005KT P6SM FEW060 OVC200
     FM051300 19006KT P6SM VCTS SCT060CB OVC120
     FM051400 22007KT P6SM VCSH SCT060 BKN120
     FM052000 24007KT P6SM VCTS BKN050CB OVC120
      TEMPO 0521/0523 VRB10KT 4SM -TSRA
     FM060100 19005KT P6SM VCSH SCT050 BKN120
     FM060500 22007KT P6SM -SHRA VCTS SCT040 BKN060CB
      TEMPO 0609/0612 VRB10KT 4SM -TSRA SCT030 OVC045CB=

USA.gov is the U.S. government's official web portal to all federal, state and local government web resources and services.